Time;durP1;ratioP1;P1;durP2;ratioP2;P2;SDS_P1;SDS_P2;PMS_P1;PMS_P2;Temp;Humidity;BMP_temperature;BMP_pressure;BME280_temperature;BME280_humidity;BME280_pressure;Samples;Min_cycle;Max_cycle;Signal;HPM_P1;HPM_P2
2023/05/04 00:01:44;;;;;;;12.25;5.40;;;;;;;2.49;100.00;102146.25;5047554;28;20045;-71
2023/05/04 00:04:10;;;;;;;10.38;5.90;;;;;;;2.45;100.00;102135.00;5047498;28;20070;-72
2023/05/04 00:06:35;;;;;;;11.43;5.53;;;;;;;2.41;100.00;102130.84;5048047;28;20036;-74
2023/05/04 00:09:01;;;;;;;14.77;6.33;;;;;;;2.36;100.00;102122.28;5047786;28;20040;-73
2023/05/04 00:11:26;;;;;;;17.77;6.60;;;;;;;2.40;100.00;102130.91;5047988;28;20051;-72
2023/05/04 00:13:52;;;;;;;13.50;6.30;;;;;;;2.36;100.00;102130.19;5048556;28;20405;-74
2023/05/04 00:16:17;;;;;;;16.70;7.13;;;;;;;2.38;100.00;102132.75;5047864;28;20032;-73
2023/05/04 00:18:43;;;;;;;16.20;6.65;;;;;;;2.36;100.00;102145.16;5064670;28;20480;-71
2023/05/04 00:21:08;;;;;;;20.23;6.43;;;;;;;2.31;100.00;102140.09;5048600;28;20103;-73
2023/05/04 00:23:33;;;;;;;14.43;6.70;;;;;;;2.33;100.00;102138.25;5051088;28;20036;-73
2023/05/04 00:25:59;;;;;;;13.00;6.37;;;;;;;2.28;100.00;102141.09;5051624;28;20345;-72
2023/05/04 00:28:25;;;;;;;20.58;6.40;;;;;;;2.27;100.00;102143.81;5068286;28;20048;-71
2023/05/04 00:30:54;;;;;;;12.15;5.20;;;;;;;2.21;100.00;102136.22;5050770;28;20029;-73
2023/05/04 00:33:20;;;;;;;19.05;6.38;;;;;;;2.14;100.00;102122.47;5050679;28;20032;-73
2023/05/04 00:35:45;;;;;;;16.92;6.07;;;;;;;2.13;100.00;102115.53;5051344;28;20028;-73
2023/05/04 00:38:12;;;;;;;19.48;7.03;;;;;;;2.15;100.00;102118.06;5051410;28;20040;-72
2023/05/04 00:40:38;;;;;;;18.42;6.60;;;;;;;2.20;100.00;102123.94;5067978;28;20086;-73
2023/05/04 00:43:03;;;;;;;12.15;6.10;;;;;;;2.14;100.00;102127.75;5050311;28;20087;-73
2023/05/04 00:45:29;;;;;;;15.00;6.77;;;;;;;2.07;100.00;102116.66;5068064;28;20036;-73
2023/05/04 00:47:55;;;;;;;12.65;7.50;;;;;;;2.09;100.00;102124.50;5050764;28;20111;-72
2023/05/04 00:50:20;;;;;;;12.85;6.45;;;;;;;2.01;100.00;102121.34;5051319;28;20442;-73
2023/05/04 00:52:48;;;;;;;23.03;7.80;;;;;;;1.99;100.00;102124.09;5050529;28;20029;-72
2023/05/04 00:55:14;;;;;;;16.67;6.70;;;;;;;1.97;100.00;102120.66;5067635;28;20021;-73
2023/05/04 00:57:40;;;;;;;14.73;6.30;;;;;;;1.94;100.00;102130.47;5052253;28;20449;-72
2023/05/04 01:00:07;;;;;;;11.40;6.07;;;;;;;1.88;100.00;102126.38;5050770;28;20047;-73
2023/05/04 01:02:33;;;;;;;22.02;8.63;;;;;;;1.84;100.00;102111.63;5050483;28;20467;-73
2023/05/04 01:05:00;;;;;;;22.08;6.90;;;;;;;1.81;100.00;102096.81;5050721;28;20028;-70
2023/05/04 01:07:37;;;;;;;18.45;9.13;;;;;;;1.87;100.00;102108.84;5050649;28;20040;-70
2023/05/04 01:10:18;;;;;;;23.33;8.65;;;;;;;1.83;100.00;102108.16;5050419;28;20029;-70
2023/05/04 01:12:51;;;;;;;14.07;7.32;;;;;;;1.82;100.00;102118.75;5050065;28;20048;-73
2023/05/04 01:15:17;;;;;;;16.23;8.02;;;;;;;1.84;100.00;102130.06;5050496;28;20091;-74
2023/05/04 01:17:42;;;;;;;17.13;7.85;;;;;;;1.80;100.00;102124.09;5050763;28;20037;-73
2023/05/04 01:20:08;;;;;;;17.15;6.13;;;;;;;1.72;100.00;102120.13;5047194;28;20037;-73
2023/05/04 01:22:37;;;;;;;15.68;6.90;;;;;;;1.66;100.00;102114.22;5061521;28;20071;-72
2023/05/04 01:25:04;;;;;;;21.13;7.68;;;;;;;1.65;100.00;102109.84;5066981;28;20063;-73
2023/05/04 01:27:41;;;;;;;12.13;6.72;;;;;;;1.64;100.00;102104.69;5033999;28;20025;-71
2023/05/04 01:30:17;;;;;;;15.88;6.38;;;;;;;1.65;100.00;102094.06;5050090;28;20033;-70
2023/05/04 01:32:44;;;;;;;13.88;6.70;;;;;;;1.68;100.00;102093.91;5049223;28;20036;-73
2023/05/04 01:35:11;;;;;;;13.65;6.93;;;;;;;1.61;100.00;102079.31;5050078;28;20198;-74
2023/05/04 01:37:37;;;;;;;18.10;6.82;;;;;;;1.55;100.00;102065.63;5050206;28;20060;-73
2023/05/04 01:40:04;;;;;;;16.00;7.82;;;;;;;1.50;100.00;102057.94;5048232;28;20555;-74
2023/05/04 01:42:29;;;;;;;18.27;6.97;;;;;;;1.52;100.00;102058.69;5066018;28;20067;-72
2023/05/04 01:44:55;;;;;;;12.02;7.47;;;;;;;1.56;100.00;102062.91;5049610;28;20024;-74
2023/05/04 01:47:20;;;;;;;18.65;8.20;;;;;;;1.48;100.00;102059.78;5066475;28;20052;-73
2023/05/04 01:49:46;;;;;;;21.45;8.88;;;;;;;1.49;100.00;102061.47;5049676;28;20028;-72
2023/05/04 01:52:11;;;;;;;18.95;8.70;;;;;;;1.50;100.00;102068.47;5049452;28;20112;-73
2023/05/04 01:54:36;;;;;;;20.93;8.00;;;;;;;1.55;100.00;102082.25;5066546;28;20032;-73
2023/05/04 01:57:02;;;;;;;13.45;7.10;;;;;;;1.47;100.00;102084.38;5049607;28;20550;-73
2023/05/04 01:59:31;;;;;;;14.50;6.93;;;;;;;1.42;100.00;102075.84;5066463;28;20479;-73
2023/05/04 02:01:56;;;;;;;20.08;8.45;;;;;;;1.35;100.00;102075.28;5049253;28;20385;-72
2023/05/04 02:04:21;;;;;;;19.00;9.18;;;;;;;1.36;100.00;102078.75;5049499;28;20079;-72
2023/05/04 02:06:47;;;;;;;20.93;9.00;;;;;;;1.37;100.00;102091.84;5049739;28;20140;-71
2023/05/04 02:09:13;;;;;;;21.00;7.45;;;;;;;1.38;100.00;102087.44;5049515;28;20025;-74
2023/05/04 02:11:38;;;;;;;17.48;7.95;;;;;;;1.37;100.00;102088.38;5051022;28;20032;-73
2023/05/04 02:14:04;;;;;;;26.97;9.23;;;;;;;1.36;100.00;102090.16;5048814;28;20111;-73
2023/05/04 02:16:30;;;;;;;;;;;;;;;1.33;100.00;102092.06;5049895;28;20403;-71
2023/05/04 02:18:55;;;;;;;19.17;7.43;;;;;;;1.30;100.00;102086.94;5082550;28;19962;-73
2023/05/04 02:21:21;;;;;;;16.63;7.80;;;;;;;1.26;100.00;102087.09;5049172;28;20037;-74
2023/05/04 02:23:46;;;;;;;15.20;8.10;;;;;;;1.21;100.00;102072.41;5048351;28;20029;-73
2023/05/04 02:26:11;;;;;;;17.73;9.40;;;;;;;1.17;100.00;102066.47;5049143;28;20098;-73
2023/05/04 02:28:37;;;;;;;11.50;6.87;;;;;;;1.17;100.00;102071.72;5049326;28;20510;-74
2023/05/04 02:31:02;;;;;;;20.03;8.60;;;;;;;1.23;100.00;102076.69;5049050;28;20638;-69
2023/05/04 02:33:27;;;;;;;21.57;8.10;;;;;;;1.20;100.00;102074.22;5048690;28;20356;-74
2023/05/04 02:35:53;;;;;;;17.53;8.33;;;;;;;1.15;100.00;102076.19;5050453;28;20114;-73
2023/05/04 02:38:18;;;;;;;19.53;9.37;;;;;;;1.11;100.00;102071.16;5049388;28;20403;-74
2023/05/04 02:40:44;;;;;;;16.70;8.87;;;;;;;1.13;100.00;102077.19;5049076;28;20390;-74
2023/05/04 02:43:09;;;;;;;18.03;9.20;;;;;;;1.14;100.00;102084.16;5049738;28;20036;-74
2023/05/04 02:45:35;;;;;;;19.30;9.90;;;;;;;1.10;100.00;102077.31;5048217;28;20286;-73
2023/05/04 02:48:00;;;;;;;21.10;9.50;;;;;;;1.05;100.00;102069.63;5048914;28;20029;-73
2023/05/04 02:50:25;;;;;;;21.30;9.10;;;;;;;1.02;100.00;102072.41;5048995;28;20036;-72
2023/05/04 02:52:51;;;;;;;24.93;9.67;;;;;;;1.09;100.00;102068.56;5048050;28;20692;-71
2023/05/04 02:55:16;;;;;;;19.73;9.13;;;;;;;1.10;100.00;102059.78;5048684;28;20441;-73
2023/05/04 02:57:41;;;;;;;17.83;9.13;;;;;;;1.16;100.00;102077.91;5048685;28;20033;-71
2023/05/04 03:00:08;;;;;;;23.93;10.53;;;;;;;1.14;100.00;102079.72;5048434;28;20333;-73
2023/05/04 03:02:34;;;;;;;20.77;9.55;;;;;;;1.06;100.00;102081.88;5048341;28;20468;-71
2023/05/04 03:04:59;;;;;;;21.30;8.98;;;;;;;1.03;100.00;102081.97;5048300;28;20036;-72
2023/05/04 03:07:24;;;;;;;16.20;8.27;;;;;;;0.95;100.00;102070.97;5048569;28;20025;-74
2023/05/04 03:09:50;;;;;;;16.75;9.98;;;;;;;0.99;100.00;102083.06;5047949;28;21067;-73
2023/05/04 03:12:15;;;;;;;16.83;8.30;;;;;;;1.03;100.00;102089.88;5048163;28;20060;-73
2023/05/04 03:14:41;;;;;;;18.98;8.52;;;;;;;0.95;100.00;102081.47;5048440;28;20276;-74
2023/05/04 03:17:06;;;;;;;17.75;9.27;;;;;;;0.97;100.00;102080.50;5048260;28;20020;-74
2023/05/04 03:19:32;;;;;;;16.13;8.18;;;;;;;0.93;100.00;102075.44;5048427;28;20029;-73
2023/05/04 03:21:57;;;;;;;18.50;8.23;;;;;;;0.89;100.00;102074.72;5047938;28;20029;-73
2023/05/04 03:24:24;;;;;;;21.27;8.20;;;;;;;0.94;100.00;102069.28;5047839;28;20029;-74
2023/05/04 03:26:49;;;;;;;17.30;7.78;;;;;;;0.91;100.00;102072.88;5048044;28;20075;-72
2023/05/04 03:29:15;;;;;;;21.35;8.55;;;;;;;0.95;100.00;102073.59;5048024;28;20052;-73
2023/05/04 03:31:40;;;;;;;17.58;8.32;;;;;;;0.93;100.00;102070.19;5048155;28;20087;-71
2023/05/04 03:34:08;;;;;;;16.75;8.90;;;;;;;0.92;100.00;102057.97;5047488;28;20025;-72
2023/05/04 03:36:33;;;;;;;17.52;8.23;;;;;;;0.90;100.00;102049.28;5047990;28;20097;-73
2023/05/04 03:38:59;;;;;;;20.08;9.60;;;;;;;0.95;100.00;102047.28;5047731;28;20530;-73
2023/05/04 03:41:24;;;;;;;13.55;8.23;;;;;;;1.01;100.00;102060.19;5048219;28;20049;-74
2023/05/04 03:43:50;;;;;;;19.00;9.87;;;;;;;1.02;100.00;102072.41;5064006;28;20041;-72
2023/05/04 03:46:15;;;;;;;23.43;10.53;;;;;;;1.07;100.00;102064.31;5049347;28;20032;-73
2023/05/04 03:48:41;;;;;;;24.38;12.60;;;;;;;1.21;100.00;102081.16;5048118;28;20290;-74
2023/05/04 03:51:09;;;;;;;21.50;9.15;;;;;;;1.26;100.00;102097.63;5048130;28;20025;-73
2023/05/04 03:53:35;;;;;;;18.42;9.07;;;;;;;1.23;100.00;102097.75;5047330;28;20052;-73
2023/05/04 03:56:01;;;;;;;18.02;9.68;;;;;;;1.25;100.00;102103.78;5050144;28;20025;-74
2023/05/04 03:58:27;;;;;;;19.52;9.40;;;;;;;1.32;100.00;102111.41;5051967;28;20090;-74
2023/05/04 04:00:52;;;;;;;15.20;8.47;;;;;;;1.38;100.00;102109.38;5068640;28;20518;-73
2023/05/04 04:03:17;;;;;;;17.73;9.27;;;;;;;1.47;100.00;102115.97;5051399;28;20323;-73
2023/05/04 04:05:43;;;;;;;23.57;10.20;;;;;;;1.61;100.00;102125.88;5051888;28;20031;-72
2023/05/04 04:08:08;;;;;;;17.83;9.40;;;;;;;1.66;100.00;102126.50;5048520;28;20292;-73
2023/05/04 04:10:34;;;;;;;21.30;10.27;;;;;;;1.72;100.00;102114.84;5037022;28;20055;-73
2023/05/04 04:13:00;;;;;;;24.95;11.00;;;;;;;1.90;100.00;102125.38;5048714;28;20041;-73
2023/05/04 04:15:25;;;;;;;29.90;14.13;;;;;;;1.97;100.00;102130.34;5068621;28;20083;-74
2023/05/04 04:17:51;;;;;;;26.90;10.95;;;;;;;2.04;100.00;102142.31;5052637;28;20386;-74
2023/05/04 04:20:16;;;;;;;28.25;12.93;;;;;;;2.09;100.00;102140.31;5051659;28;20029;-70
2023/05/04 04:22:42;;;;;;;23.50;12.30;;;;;;;2.22;100.00;102135.28;5052022;28;20040;-72
2023/05/04 04:25:07;;;;;;;27.00;12.73;;;;;;;2.45;100.00;102153.47;5051597;28;20047;-71
2023/05/04 04:27:33;;;;;;;22.25;11.75;;;;;;;2.63;100.00;102153.50;5051634;28;20029;-74
2023/05/04 04:29:59;;;;;;;27.25;11.98;;;;;;;2.69;100.00;102159.31;5051255;28;20025;-73
2023/05/04 04:32:24;;;;;;;20.73;10.48;;;;;;;2.78;100.00;102142.16;5067834;28;20033;-73
2023/05/04 04:34:50;;;;;;;15.17;8.97;;;;;;;2.84;100.00;102138.38;5052613;28;20096;-73
2023/05/04 04:37:15;;;;;;;28.47;11.53;;;;;;;2.87;100.00;102123.22;5051280;28;20384;-73
2023/05/04 04:39:41;;;;;;;28.33;13.07;;;;;;;2.95;100.00;102121.06;5051396;28;20056;-72
2023/05/04 04:42:06;;;;;;;24.83;11.38;;;;;;;3.07;100.00;102124.00;5052264;28;20039;-72
2023/05/04 04:44:32;;;;;;;25.42;12.63;;;;;;;3.20;100.00;102135.59;5051039;28;20374;-74
2023/05/04 04:46:57;;;;;;;32.28;12.88;;;;;;;3.29;100.00;102143.03;5050980;28;20484;-73
2023/05/04 04:49:23;;;;;;;20.87;12.07;;;;;;;3.38;100.00;102145.19;5052514;28;20060;-72
2023/05/04 04:51:49;;;;;;;25.53;12.27;;;;;;;3.41;100.00;102146.81;5050801;28;20033;-74
2023/05/04 04:54:14;;;;;;;22.05;10.10;;;;;;;3.46;100.00;102147.41;5050676;28;20353;-74
2023/05/04 04:56:40;;;;;;;27.40;11.13;;;;;;;3.51;100.00;102148.03;5068052;28;20032;-74
2023/05/04 04:59:06;;;;;;;17.40;9.50;;;;;;;3.52;100.00;102140.94;5051247;28;20060;-73
2023/05/04 05:01:32;;;;;;;22.80;10.18;;;;;;;3.56;100.00;102129.28;5050879;28;20071;-73
2023/05/04 05:03:58;;;;;;;21.65;11.02;;;;;;;3.57;100.00;102123.91;5050341;28;20032;-72
2023/05/04 05:06:24;;;;;;;20.70;9.30;;;;;;;3.71;100.00;102131.09;5050561;28;20064;-73
2023/05/04 05:08:50;;;;;;;18.52;9.27;;;;;;;3.86;100.00;102145.22;5049899;28;20032;-71
2023/05/04 05:11:16;;;;;;;17.45;9.63;;;;;;;3.96;100.00;102141.16;5067007;28;20033;-73
2023/05/04 05:13:41;;;;;;;19.50;9.38;;;;;;;4.11;100.00;102139.44;5066979;28;20036;-73
2023/05/04 05:16:07;;;;;;;19.73;11.18;;;;;;;4.34;100.00;102132.00;5050529;28;20037;-74
2023/05/04 05:18:32;;;;;;;21.13;12.43;;;;;;;4.37;100.00;102123.88;5051678;28;20041;-74
2023/05/04 05:20:57;;;;;;;23.83;12.27;;;;;;;4.53;100.00;102119.41;5051209;28;20283;-74
2023/05/04 05:23:23;;;;;;;26.27;10.73;;;;;;;4.54;100.00;102113.19;5051079;28;20056;-74
2023/05/04 05:25:48;;;;;;;15.10;9.83;;;;;;;4.92;100.00;102120.66;5051571;28;20494;-73
2023/05/04 05:28:14;;;;;;;15.80;8.17;;;;;;;5.74;100.00;102139.47;5051518;28;20335;-73
2023/05/04 05:30:39;;;;;;;19.63;9.73;;;;;;;6.28;100.00;102129.78;5051815;28;20033;-73
2023/05/04 05:33:05;;;;;;;16.43;8.90;;;;;;;7.20;100.00;102128.00;5050904;28;20400;-71
2023/05/04 05:35:30;;;;;;;11.70;7.73;;;;;;;8.04;100.00;102111.34;5050006;28;20451;-70
2023/05/04 05:37:56;;;;;;;15.73;7.97;;;;;;;8.87;100.00;102086.53;5066942;28;20036;-70
2023/05/04 05:40:22;;;;;;;16.33;8.60;;;;;;;9.00;100.00;101963.88;5050812;28;20033;-71
2023/05/04 05:42:47;;;;;;;15.03;8.87;;;;;;;9.65;100.00;101908.81;5048487;28;20029;-71
2023/05/04 05:45:13;;;;;;;14.02;6.88;;;;;;;10.59;100.00;101826.09;5052019;28;20568;-69
2023/05/04 05:47:38;;;;;;;15.63;6.30;;;;;;;10.66;100.00;101687.50;5049867;28;20603;-69
2023/05/04 05:50:05;;;;;;;12.43;6.93;;;;;;;10.37;100.00;101522.81;5050753;28;20127;-69
2023/05/04 05:52:30;;;;;;;;;;;;;;;10.43;100.00;101505.41;5051125;28;20029;-70
2023/05/04 05:54:56;;;;;;;;;;;;;;;11.11;100.00;101479.31;5051339;28;19920;-69
2023/05/04 05:57:21;;;;;;;16.37;6.13;;;;;;;12.00;100.00;101352.00;5050923;28;19995;-70
2023/05/04 05:59:46;;;;;;;10.87;5.43;;;;;;;11.82;100.00;101181.63;5049606;28;20060;-69
2023/05/04 06:02:15;;;;;;;10.37;5.37;;;;;;;12.60;100.00;101086.81;5055210;28;20024;-70
2023/05/04 06:04:41;;;;;;;11.18;5.40;;;;;;;12.66;100.00;100798.69;5060074;28;20041;-70
2023/05/04 06:07:06;;;;;;;11.00;5.60;;;;;;;11.80;100.00;100789.56;5059685;28;20016;-69
2023/05/04 06:09:32;;;;;;;13.23;5.93;;;;;;;12.48;100.00;100892.66;5058223;28;20037;-69
2023/05/04 06:11:58;;;;;;;11.38;5.72;;;;;;;12.88;100.00;100730.09;5058575;28;20052;-69
2023/05/04 06:14:23;;;;;;;12.68;6.13;;;;;;;13.55;100.00;100699.06;5057732;28;20063;-70
2023/05/04 06:16:48;;;;;;;13.93;5.80;;;;;;;13.88;100.00;100609.16;5059545;28;20036;-69
2023/05/04 06:19:14;;;;;;;13.90;5.07;;;;;;;13.89;100.00;100347.81;5058666;28;20036;-70
2023/05/04 06:21:39;;;;;;;12.57;4.88;;;;;;;14.57;100.00;100551.44;5059663;28;20025;-70
2023/05/04 06:24:05;;;;;;;15.10;6.47;;;;;;;13.82;97.56;100132.28;5058971;28;20182;-69
2023/05/04 06:26:31;;;;;;;15.05;6.63;;;;;;;12.64;100.00;100298.03;5058795;28;20024;-69
2023/05/04 06:28:56;;;;;;;12.95;5.00;;;;;;;13.47;100.00;100531.84;5058668;28;20055;-69
2023/05/04 06:31:23;;;;;;;16.90;4.63;;;;;;;14.48;97.52;100550.69;5055328;28;20036;-71
2023/05/04 06:33:48;;;;;;;;;;;;;;;14.79;94.63;100401.75;5049216;28;20048;-71
2023/05/04 06:36:13;;;;;;;;;;;;;;;14.76;92.07;100300.03;5050865;28;19913;-69
2023/05/04 06:38:39;;;;;;;9.90;5.27;;;;;;;13.07;93.87;100223.06;5050183;28;19913;-69
2023/05/04 06:41:05;;;;;;;14.60;5.38;;;;;;;12.55;94.91;100274.19;5049995;28;20082;-69
2023/05/04 06:43:31;;;;;;;13.10;4.67;;;;;;;12.44;99.09;100663.75;5064863;28;20044;-68
2023/05/04 06:46:00;;;;;;;12.27;5.13;;;;;;;13.37;95.98;100579.56;5065219;28;20506;-69
2023/05/04 06:48:26;;;;;;;9.35;4.57;;;;;;;13.50;94.19;100542.19;5050141;28;20045;-68
2023/05/04 06:50:52;;;;;;;18.53;5.73;;;;;;;13.92;91.07;100371.56;5048430;28;20025;-68
2023/05/04 06:53:17;;;;;;;13.18;4.45;;;;;;;13.01;90.49;100264.03;5049483;28;20033;-71
2023/05/04 06:55:42;;;;;;;25.90;6.50;;;;;;;13.52;89.23;100317.56;5049491;28;20086;-71
2023/05/04 06:58:11;;;;;;;14.47;5.63;;;;;;;13.93;87.94;100294.59;5082195;28;20036;-71
2023/05/04 07:00:36;;;;;;;14.07;5.03;;;;;;;14.41;83.70;100081.69;5049966;28;20025;-71
2023/05/04 07:03:02;;;;;;;11.37;4.20;;;;;;;13.97;81.97;99905.91;5064789;28;20102;-71
2023/05/04 07:05:27;;;;;;;10.77;4.05;;;;;;;13.10;81.14;99697.44;5050123;28;20033;-71
2023/05/04 07:07:53;;;;;;;12.63;4.40;;;;;;;13.19;79.91;99665.91;5049530;28;20032;-70
2023/05/04 07:10:18;;;;;;;12.40;3.90;;;;;;;13.04;79.89;99678.66;5049700;28;20064;-71
2023/05/04 07:12:44;;;;;;;10.27;3.03;;;;;;;12.21;77.79;99424.66;5049570;28;20033;-70
2023/05/04 07:15:10;;;;;;;7.20;3.60;;;;;;;12.61;77.98;99607.53;5041767;28;20029;-70
2023/05/04 07:17:36;;;;;;;6.50;3.50;;;;;;;12.18;78.71;99685.44;5049592;28;20033;-71
2023/05/04 07:20:03;;;;;;;6.90;3.30;;;;;;;12.42;77.65;99632.41;5050016;28;20277;-70
2023/05/04 07:22:30;;;;;;;13.75;3.40;;;;;;;12.22;78.66;99783.03;5047724;28;20037;-70
2023/05/04 07:24:56;;;;;;;6.13;3.20;;;;;;;12.50;79.77;100057.88;5048971;28;20025;-70
2023/05/04 07:27:21;;;;;;;8.75;3.50;;;;;;;11.88;77.21;99604.63;5049588;28;20396;-70
2023/05/04 07:29:47;;;;;;;10.27;4.13;;;;;;;12.50;77.91;99934.72;5064252;28;20028;-70
2023/05/04 07:32:12;;;;;;;11.27;4.63;;;;;;;12.00;74.85;99439.03;5064325;28;20454;-71
2023/05/04 07:34:38;;;;;;;9.93;3.67;;;;;;;12.86;75.66;99870.28;5049221;28;20036;-71
2023/05/04 07:37:04;;;;;;;11.80;3.50;;;;;;;13.21;75.64;99956.00;5047860;28;20037;-71
2023/05/04 07:39:29;;;;;;;10.65;4.70;;;;;;;13.82;73.68;99865.84;5047813;28;20119;-71
2023/05/04 07:41:55;;;;;;;7.97;3.45;;;;;;;13.60;73.13;99741.81;5048852;28;20520;-71
2023/05/04 07:44:20;;;;;;;20.60;4.00;;;;;;;13.38;71.34;99475.81;5047342;28;20487;-71
2023/05/04 07:46:46;;;;;;;10.85;3.85;;;;;;;11.87;74.24;99524.56;5047510;28;20049;-71
2023/05/04 07:49:11;;;;;;;7.30;3.47;;;;;;;12.41;74.78;99828.84;5049265;28;20392;-71
2023/05/04 07:51:38;;;;;;;12.40;4.00;;;;;;;13.32;74.33;100036.88;5049188;28;20326;-71
2023/05/04 07:54:03;;;;;;;;;;;;;;;13.23;73.29;99853.94;5048700;28;20029;-71
2023/05/04 07:56:28;;;;;;;13.13;4.32;;;;;;;13.59;74.14;100110.28;5049169;28;19913;-71
2023/05/04 07:58:54;;;;;;;10.73;4.43;;;;;;;13.88;73.14;100042.09;5049120;28;20283;-71
2023/05/04 08:01:19;;;;;;;12.63;3.67;;;;;;;13.79;71.94;99863.56;5064561;28;20090;-71
2023/05/04 08:03:44;;;;;;;10.83;4.17;;;;;;;14.64;70.56;99966.66;5048093;28;20028;-71
2023/05/04 08:06:10;;;;;;;12.77;4.10;;;;;;;14.86;69.38;99869.66;5048751;28;20036;-71
2023/05/04 08:08:35;;;;;;;10.73;3.40;;;;;;;15.49;68.11;99891.31;5048933;28;20029;-69
2023/05/04 08:11:00;;;;;;;6.53;3.80;;;;;;;13.43;68.04;99315.97;5064215;28;20519;-69
2023/05/04 08:13:29;;;;;;;11.53;4.10;;;;;;;13.97;67.76;99508.75;5048568;28;20017;-69
2023/05/04 08:15:59;;;;;;;16.77;4.25;;;;;;;14.23;68.48;99731.41;5064142;28;20138;-69
2023/05/04 08:18:26;;;;;;;8.55;3.40;;;;;;;14.16;68.82;99768.16;5048842;28;20033;-69
2023/05/04 08:20:52;;;;;;;11.70;3.60;;;;;;;13.65;67.18;99390.69;5048378;28;20036;-69
2023/05/04 08:23:17;;;;;;;10.80;4.13;;;;;;;13.21;66.63;99218.16;5046612;28;20419;-69
2023/05/04 08:25:43;;;;;;;10.10;4.03;;;;;;;12.92;68.77;99547.19;5048706;28;20029;-69
2023/05/04 08:28:08;;;;;;;10.50;4.30;;;;;;;14.04;68.18;99812.78;5044030;28;20412;-71
2023/05/04 08:30:34;;;;;;;10.53;3.97;;;;;;;14.85;67.80;99962.09;5044248;28;20071;-71
2023/05/04 08:32:59;;;;;;;8.50;4.20;;;;;;;15.23;65.13;99693.31;5048255;28;20028;-71
2023/05/04 08:35:26;;;;;;;9.60;3.80;;;;;;;15.82;64.60;99820.34;5049227;28;20476;-69
2023/05/04 08:37:52;;;;;;;12.82;4.07;;;;;;;16.08;63.63;99721.53;5047108;28;20028;-68
2023/05/04 08:40:18;;;;;;;6.10;3.35;;;;;;;16.10;63.01;99654.84;5048930;28;20112;-68
2023/05/04 08:42:46;;;;;;;10.57;3.55;;;;;;;15.74;61.39;99338.97;5049614;28;20065;-69
2023/05/04 08:45:13;;;;;;;10.65;3.95;;;;;;;16.12;61.65;99588.94;5044824;28;20036;-69
2023/05/04 08:47:41;;;;;;;9.77;3.70;;;;;;;16.16;60.71;99417.81;5052279;28;20048;-69
2023/05/04 08:50:07;;;;;;;11.50;3.88;;;;;;;15.96;60.47;99333.84;5052315;28;20051;-69
2023/05/04 08:52:34;;;;;;;13.40;4.93;;;;;;;14.66;61.37;99165.97;5051700;28;20126;-71
2023/05/04 08:55:00;;;;;;;11.38;3.58;;;;;;;14.89;62.06;99485.81;5052179;28;20025;-70
2023/05/04 08:57:26;;;;;;;;;;;;;;;15.89;61.65;99674.94;5052825;28;20037;-71
2023/05/04 08:59:52;;;;;;;;;;;;;;;16.07;61.45;99714.53;5060003;28;19931;-70
2023/05/04 09:02:22;;;;;;;7.18;3.90;;;;;;;13.74;60.77;98836.91;5051794;28;19920;-70
2023/05/04 09:04:48;;;;;;;12.02;4.75;;;;;;;14.74;62.10;99553.28;5051543;28;20037;-71
2023/05/04 09:07:15;;;;;;;;;;;;;;;14.92;61.67;99525.66;5052641;28;20031;-70
2023/05/04 09:09:40;;;;;;;9.48;3.78;;;;;;;14.40;61.43;99266.41;5052186;28;20548;-71
2023/05/04 09:12:07;;;;;;;8.45;4.25;;;;;;;14.40;63.21;99639.63;5051598;28;20028;-71
2023/05/04 09:14:34;;;;;;;12.60;5.00;;;;;;;15.09;61.85;99589.59;5051111;28;20033;-70
2023/05/04 09:17:13;;;;;;;12.35;4.82;;;;;;;14.80;62.53;99647.50;5052173;28;20104;-70
2023/05/04 09:19:42;;;;;;;8.65;4.32;;;;;;;14.46;61.73;99423.97;5051850;28;20175;-71
2023/05/04 09:22:18;;;;;;;10.90;4.30;;;;;;;14.89;62.60;99769.81;5051402;28;20066;-70
2023/05/04 09:24:45;;;;;;;9.85;4.40;;;;;;;15.51;60.55;99590.66;5050409;28;20048;-71
2023/05/04 09:27:12;;;;;;;11.23;3.85;;;;;;;16.75;61.15;100101.63;5042732;28;20033;-68
2023/05/04 09:29:39;;;;;;;9.50;4.40;;;;;;;17.36;59.09;99951.69;5051789;28;20458;-69
2023/05/04 09:32:05;;;;;;;10.98;4.03;;;;;;;15.67;57.66;99080.78;5050717;28;20025;-69
2023/05/04 09:34:32;;;;;;;14.02;4.68;;;;;;;15.45;58.79;99276.88;5051642;28;20036;-69
2023/05/04 09:37:00;;;;;;;16.63;5.93;;;;;;;15.22;60.01;99411.22;5051459;28;20054;-70
2023/05/04 09:39:25;;;;;;;11.18;3.95;;;;;;;15.77;60.07;99702.59;5051413;28;20049;-69
2023/05/04 09:41:51;;;;;;;10.07;5.17;;;;;;;15.32;57.16;98997.44;5051116;28;20032;-69
2023/05/04 09:44:21;;;;;;;12.43;4.33;;;;;;;14.30;60.11;99195.28;5050463;28;20036;-68
2023/05/04 09:46:59;;;;;;;13.25;4.38;;;;;;;15.80;59.27;99632.19;5066357;28;20037;-69
2023/05/04 09:49:34;;;;;;;10.98;4.00;;;;;;;16.10;58.22;99504.06;5051194;28;20498;-70
2023/05/04 09:52:01;;;;;;;12.88;4.35;;;;;;;16.40;58.17;99627.94;5050778;28;20171;-71
2023/05/04 09:54:34;;;;;;;11.98;4.53;;;;;;;14.99;57.28;98950.50;5050207;28;20025;-71
2023/05/04 09:57:09;;;;;;;11.63;4.45;;;;;;;14.60;58.29;99079.06;5050991;28;20112;-71
2023/05/04 09:59:35;;;;;;;10.57;3.95;;;;;;;15.58;58.26;99534.09;5050171;28;20391;-71
2023/05/04 10:02:01;;;;;;;11.13;4.95;;;;;;;14.63;56.58;98828.81;5049382;28;20029;-71
2023/05/04 10:04:27;;;;;;;;;;;;;;;16.26;57.25;99638.06;5066666;28;20047;-71
2023/05/04 10:06:53;;;;;;;;;;;;;;;16.85;55.04;99426.19;5050062;28;20353;-71
2023/05/04 10:09:20;;;;;;;9.43;4.28;;;;;;;17.02;53.85;99201.69;5050959;28;19921;-71
2023/05/04 10:11:45;;;;;;;11.77;4.68;;;;;;;15.99;54.87;99075.81;5050539;28;20025;-71
2023/05/04 10:14:12;;;;;;;8.77;3.85;;;;;;;16.09;56.39;99405.50;5050513;28;20040;-71
2023/05/04 10:16:50;;;;;;;7.25;3.47;;;;;;;16.22;55.65;99224.88;5049301;28;20028;-69
2023/05/04 10:19:52;;;;;;;7.18;3.90;;;;;;;14.70;56.44;98856.41;5043704;28;20051;-69
2023/05/04 10:22:35;;;;;;;11.85;4.10;;;;;;;15.02;57.61;99263.66;5050295;28;20032;-71
2023/05/04 10:25:29;;;;;;;10.65;4.15;;;;;;;15.74;56.37;99315.56;5050326;28;20037;-71
2023/05/04 10:28:19;;;;;;;9.68;3.58;;;;;;;16.38;55.42;99358.81;5050158;28;20120;-71
2023/05/04 10:30:44;;;;;;;11.65;4.32;;;;;;;15.00;55.22;98823.16;5057823;28;20041;-71
2023/05/04 10:33:11;;;;;;;9.33;3.77;;;;;;;14.72;56.77;98947.47;5049980;28;20021;-71
2023/05/04 10:35:37;;;;;;;9.27;4.20;;;;;;;14.71;58.85;99368.38;5049220;28;20037;-70
2023/05/04 10:38:03;;;;;;;;;;;;;;;15.32;59.34;99710.00;5049562;28;22122;-71
2023/05/04 10:40:37;;;;;;;;;;;;;;;15.10;57.83;99352.84;5050732;28;20007;-71
2023/05/04 10:43:04;;;;;;;10.98;4.13;;;;;;;15.85;57.49;99662.97;5064915;28;20070;-71
2023/05/04 10:45:40;;;;;;;14.88;4.57;;;;;;;15.16;58.44;99456.78;5049203;28;20032;-70
2023/05/04 10:48:09;;;;;;;11.00;4.72;;;;;;;14.88;57.27;99228.06;5048746;28;20082;-71
2023/05/04 10:50:42;;;;;;;10.05;4.50;;;;;;;15.71;58.01;99624.63;5049103;28;20029;-71
2023/05/04 10:53:08;;;;;;;10.40;3.90;;;;;;;15.60;57.22;99484.41;5049546;28;20025;-71
2023/05/04 10:55:45;;;;;;;9.52;3.45;;;;;;;16.59;56.25;99704.16;5045948;28;20075;-71
2023/05/04 10:58:13;;;;;;;8.00;4.35;;;;;;;17.02;55.83;99708.56;5042262;28;20029;-71
2023/05/04 11:00:40;;;;;;;12.27;3.53;;;;;;;16.77;54.25;99313.34;5048802;28;20036;-71
2023/05/04 11:03:06;;;;;;;10.82;3.75;;;;;;;17.12;54.70;99544.34;5048867;28;20036;-69
2023/05/04 11:05:54;;;;;;;8.15;3.47;;;;;;;17.63;54.19;99641.78;5048146;28;20112;-70
2023/05/04 11:08:21;;;;;;;12.82;4.30;;;;;;;18.30;53.83;99765.63;5050025;28;20033;-71
2023/05/04 11:10:48;;;;;;;17.77;4.15;;;;;;;18.94;53.33;99806.16;5049671;28;20067;-72
2023/05/04 11:13:15;;;;;;;10.23;3.88;;;;;;;18.91;51.36;99472.13;5049371;28;20028;-71
2023/05/04 11:15:50;;;;;;;9.73;3.78;;;;;;;18.21;52.49;99367.25;5049974;28;20064;-71
2023/05/04 11:18:30;;;;;;;13.63;4.30;;;;;;;17.83;53.14;99341.81;5049651;28;20033;-71
2023/05/04 11:20:56;;;;;;;9.55;4.25;;;;;;;18.62;52.22;99497.63;5048132;28;20149;-69
2023/05/04 11:23:22;;;;;;;7.47;3.45;;;;;;;19.55;50.96;99611.56;5049024;28;20028;-69